Time;durP1;ratioP1;P1;durP2;ratioP2;P2;SDS_P1;SDS_P2;PMS_P1;PMS_P2;Temp;Humidity;BMP_temperature;BMP_pressure;BME280_temperature;BME280_humidity;BME280_pressure;Samples;Min_cycle;Max_cycle;Signal;HPM_P1;HPM_P2
2022/09/07 00:01:46;;;;;;;10.80;6.37;;;;;;;24.03;55.48;98196.19;4439679;32;20058;-81
2022/09/07 00:04:13;;;;;;;11.85;6.25;;;;;;;24.70;53.44;98194.13;4439704;32;20113;-81
2022/09/07 00:06:40;;;;;;;11.07;5.82;;;;;;;25.35;51.38;98190.22;4439901;32;20054;-81
2022/09/07 00:09:07;;;;;;;11.30;6.20;;;;;;;25.16;51.69;98179.84;4439584;32;20115;-81
2022/09/07 00:11:34;;;;;;;10.23;5.78;;;;;;;25.01;52.16;98182.22;4439722;32;20058;-81
2022/09/07 00:14:01;;;;;;;10.65;5.55;;;;;;;24.81;52.45;98181.53;4439817;32;20122;-81
2022/09/07 00:16:29;;;;;;;10.52;5.75;;;;;;;24.64;52.42;98182.34;4439532;32;20061;-81
2022/09/07 00:19:01;;;;;;;10.48;5.85;;;;;;;24.92;50.95;98188.38;4439670;32;20115;-81
2022/09/07 00:21:29;;;;;;;10.82;6.07;;;;;;;23.93;54.32;98183.06;4439864;32;20118;-81
2022/09/07 00:23:56;;;;;;;11.45;6.35;;;;;;;23.67;55.77;98182.88;4439424;32;20118;-81
2022/09/07 00:26:28;;;;;;;12.77;6.28;;;;;;;24.12;54.76;98173.38;4439625;32;20077;-81
2022/09/07 00:29:00;;;;;;;11.00;6.82;;;;;;;24.04;55.28;98182.03;4439743;32;20082;-81
2022/09/07 00:31:28;;;;;;;10.57;6.47;;;;;;;23.70;56.59;98173.84;4439511;32;20077;-81
2022/09/07 00:33:58;;;;;;;11.15;6.03;;;;;;;23.68;56.54;98170.53;4439707;32;20137;-81
2022/09/07 00:36:25;;;;;;;11.05;6.43;;;;;;;23.90;55.41;98172.78;4439650;32;20078;-81
2022/09/07 00:38:52;;;;;;;11.63;6.45;;;;;;;24.49;53.20;98173.31;4439416;32;20093;-81
2022/09/07 00:41:21;;;;;;;14.13;6.50;;;;;;;24.31;53.71;98173.28;4439564;32;20122;-81
2022/09/07 00:44:18;;;;;;;11.23;6.65;;;;;;;23.81;54.75;98171.03;4439268;32;20094;-81
2022/09/07 00:46:45;;;;;;;11.73;6.50;;;;;;;23.64;55.46;98179.72;4439497;32;20109;-81
2022/09/07 00:49:16;;;;;;;10.00;6.03;;;;;;;23.70;55.42;98173.03;4439453;32;20115;-81
2022/09/07 00:51:49;;;;;;;10.80;6.75;;;;;;;24.26;53.39;98172.91;4438913;32;20129;-81
2022/09/07 00:54:18;;;;;;;10.93;6.40;;;;;;;24.42;52.60;98167.81;4439535;32;20117;-81
2022/09/07 00:56:46;;;;;;;12.18;6.50;;;;;;;24.26;53.38;98178.16;4439097;32;20109;-81
2022/09/07 00:59:15;;;;;;;10.77;5.97;;;;;;;23.76;55.01;98175.09;4451368;32;20090;-81
2022/09/07 01:01:42;;;;;;;12.18;6.78;;;;;;;24.17;53.34;98176.41;4439110;32;20110;-81
2022/09/07 01:04:12;;;;;;;11.90;6.68;;;;;;;22.32;59.83;98174.25;4451580;32;20070;-81
2022/09/07 01:06:41;;;;;;;12.23;7.20;;;;;;;23.11;57.75;98167.09;4439152;32;20102;-81
2022/09/07 01:09:11;;;;;;;12.37;6.47;;;;;;;23.66;56.09;98165.44;4439171;32;20074;-81
2022/09/07 01:11:39;;;;;;;11.30;6.37;;;;;;;23.55;56.16;98160.31;4439315;32;20126;-81
2022/09/07 01:14:10;;;;;;;12.05;6.80;;;;;;;24.12;54.04;98154.94;4439022;32;20118;-81
2022/09/07 01:17:19;;;;;;;10.90;6.75;;;;;;;23.60;55.95;98157.25;4438949;32;20094;-81
2022/09/07 01:20:15;;;;;;;11.73;6.70;;;;;;;24.05;54.83;98156.50;4431929;32;20129;-81
2022/09/07 01:23:20;;;;;;;10.90;6.62;;;;;;;24.10;54.67;98159.53;4438667;32;20082;-81
2022/09/07 01:26:15;;;;;;;11.32;6.62;;;;;;;24.08;54.42;98154.41;4438601;32;20123;-81
2022/09/07 01:28:46;;;;;;;11.75;6.30;;;;;;;24.12;54.20;98150.47;4451102;32;20061;-81
2022/09/07 01:31:27;;;;;;;12.25;6.78;;;;;;;24.23;52.79;98150.28;4440365;32;20077;-81
2022/09/07 01:34:20;;;;;;;11.63;6.53;;;;;;;24.15;53.75;98136.19;4440472;32;20078;-81
2022/09/07 01:37:07;;;;;;;11.43;6.47;;;;;;;23.27;56.48;98143.63;4441146;32;20123;-81
2022/09/07 01:40:06;;;;;;;13.73;6.40;;;;;;;23.35;56.34;98140.28;4453431;32;20069;-81
2022/09/07 01:42:43;;;;;;;11.02;6.20;;;;;;;23.65;55.56;98149.78;4440552;32;20096;-81
2022/09/07 01:45:13;;;;;;;13.23;6.55;;;;;;;23.87;54.51;98151.19;4453380;32;20123;-81
2022/09/07 01:47:46;;;;;;;11.48;6.68;;;;;;;23.46;55.41;98141.91;4440468;32;20074;-81
2022/09/07 01:50:20;;;;;;;10.32;5.82;;;;;;;24.08;52.84;98148.31;4440979;32;20062;-81
2022/09/07 01:52:59;;;;;;;10.02;6.20;;;;;;;23.85;51.92;98140.81;4440987;32;20061;-81
2022/09/07 01:55:42;;;;;;;13.02;6.37;;;;;;;23.72;52.16;98142.13;4440561;32;20110;-81
2022/09/07 01:58:38;;;;;;;11.75;6.62;;;;;;;23.37;53.60;98141.78;4440739;32;20126;-81
2022/09/07 02:01:31;;;;;;;19.10;6.85;;;;;;;23.47;54.26;98144.38;4439311;32;20062;-81
2022/09/07 02:04:19;;;;;;;11.32;6.43;;;;;;;22.64;57.34;98145.06;4440759;32;20112;-81
2022/09/07 02:06:55;;;;;;;12.37;6.75;;;;;;;23.37;55.68;98133.87;4440491;32;20107;-81
2022/09/07 02:09:46;;;;;;;11.77;7.00;;;;;;;22.40;59.18;98133.16;4440390;32;20113;-81
2022/09/07 02:12:17;;;;;;;12.50;7.32;;;;;;;22.54;59.28;98131.91;4440648;32;20054;-81
2022/09/07 02:14:47;;;;;;;12.48;7.35;;;;;;;22.30;60.41;98134.13;4440764;32;20133;-81
2022/09/07 02:17:38;;;;;;;12.40;6.90;;;;;;;21.61;64.25;98132.28;4440850;32;20117;-81
2022/09/07 02:20:12;;;;;;;13.07;7.20;;;;;;;22.74;60.06;98143.25;4440508;32;20102;-81
2022/09/07 02:22:43;;;;;;;15.32;6.62;;;;;;;23.31;56.73;98128.38;4440279;32;20099;-81
2022/09/07 02:25:13;;;;;;;12.43;6.82;;;;;;;23.78;54.61;98125.72;4440454;32;20066;-81
2022/09/07 02:27:44;;;;;;;15.35;7.20;;;;;;;23.77;54.50;98111.72;4440457;32;20088;-81
2022/09/07 02:30:12;;;;;;;12.40;7.35;;;;;;;23.49;55.07;98126.63;4440154;32;20128;-81
2022/09/07 02:32:39;;;;;;;11.52;7.25;;;;;;;23.18;55.95;98127.84;4440770;32;20053;-81
2022/09/07 02:35:09;;;;;;;11.85;7.15;;;;;;;22.79;57.43;98127.91;4440289;32;20097;-81
2022/09/07 02:37:37;;;;;;;13.18;7.40;;;;;;;22.86;57.62;98120.31;4452938;32;20129;-81
2022/09/07 02:40:05;;;;;;;13.98;8.30;;;;;;;22.78;58.03;98113.09;4453003;32;20111;-81
2022/09/07 02:42:33;;;;;;;13.60;8.43;;;;;;;22.92;58.17;98111.84;4439713;32;20105;-81
2022/09/07 02:45:01;;;;;;;13.85;7.97;;;;;;;22.21;62.22;98096.34;4440237;32;20114;-81
2022/09/07 02:48:02;;;;;;;13.38;7.87;;;;;;;22.21;62.56;98091.09;4440740;32;20070;-81
2022/09/07 02:50:29;;;;;;;14.68;8.27;;;;;;;22.05;62.04;98096.88;4440387;32;20079;-81
2022/09/07 02:53:02;;;;;;;14.02;7.82;;;;;;;22.50;60.77;98105.09;4440646;32;20077;-81
2022/09/07 02:55:52;;;;;;;11.80;7.05;;;;;;;23.90;55.16;98096.37;4440350;32;20106;-81
2022/09/07 02:58:45;;;;;;;11.05;6.32;;;;;;;23.55;52.49;98101.53;4440430;32;20070;-81
2022/09/07 03:01:39;;;;;;;10.75;6.45;;;;;;;21.85;57.06;98109.13;4440560;32;20118;-81
2022/09/07 03:04:35;;;;;;;13.85;7.12;;;;;;;21.31;60.21;98097.22;4452594;32;20066;-81
2022/09/07 03:07:08;;;;;;;13.30;7.68;;;;;;;21.84;59.12;98089.09;4412868;32;20130;-81
2022/09/07 03:09:41;;;;;;;12.13;6.93;;;;;;;21.42;61.06;98092.84;4452888;32;20093;-81
2022/09/07 03:12:08;;;;;;;11.80;7.10;;;;;;;21.96;59.79;98097.69;4452787;32;20069;-81
2022/09/07 03:14:38;;;;;;;14.52;6.68;;;;;;;22.38;57.67;98092.22;4440039;32;20057;-81
2022/09/07 03:17:06;;;;;;;13.75;7.72;;;;;;;21.70;59.23;98097.38;4440571;32;20096;-81
2022/09/07 03:19:33;;;;;;;12.48;6.90;;;;;;;22.06;57.99;98108.22;4439855;32;20146;-81
2022/09/07 03:22:01;;;;;;;12.45;6.93;;;;;;;22.42;56.61;98098.84;4440457;32;20094;-81
2022/09/07 03:24:28;;;;;;;13.00;7.43;;;;;;;21.94;58.32;98089.94;4440036;32;20058;-81
2022/09/07 03:26:56;;;;;;;11.88;7.25;;;;;;;22.44;57.51;98096.94;4439071;32;20117;-81
2022/09/07 03:29:23;;;;;;;14.02;7.65;;;;;;;22.30;58.34;98103.41;4438765;32;20077;-81
2022/09/07 03:31:50;;;;;;;12.07;7.28;;;;;;;22.45;58.64;98099.44;4439930;32;20074;-81
2022/09/07 03:34:24;;;;;;;13.23;7.37;;;;;;;22.53;58.72;98110.06;4439632;32;20076;-81
2022/09/07 03:36:51;;;;;;;11.55;7.10;;;;;;;23.47;56.02;98109.34;4440110;32;20077;-81
2022/09/07 03:39:21;;;;;;;13.23;7.90;;;;;;;22.53;58.37;98110.06;4439577;32;20113;-81
2022/09/07 03:41:49;;;;;;;11.82;7.07;;;;;;;22.74;57.75;98104.63;4440154;32;20058;-81
2022/09/07 03:44:17;;;;;;;12.27;7.60;;;;;;;23.19;56.17;98105.84;4439943;32;20115;-81
2022/09/07 03:46:44;;;;;;;12.75;8.18;;;;;;;22.76;57.38;98115.06;4439818;32;20066;-81
2022/09/07 03:49:11;;;;;;;12.07;7.12;;;;;;;22.59;58.28;98113.13;4439995;32;20067;-81
2022/09/07 03:51:38;;;;;;;13.32;8.13;;;;;;;22.65;58.50;98116.03;4440203;32;20070;-81
2022/09/07 03:54:36;;;;;;;16.10;8.40;;;;;;;22.42;59.00;98109.38;4439370;32;20176;-81
2022/09/07 03:57:05;;;;;;;13.85;8.65;;;;;;;22.63;58.47;98117.13;4440156;32;20058;-81
2022/09/07 03:59:33;;;;;;;13.20;8.15;;;;;;;22.97;57.37;98115.75;4439911;32;20113;-81
2022/09/07 04:02:00;;;;;;;13.98;8.60;;;;;;;23.34;56.37;98114.94;4439887;32;20114;-81
2022/09/07 04:07:57;;;;;;;13.10;8.52;;;;;;;23.37;56.19;98115.47;4439860;32;20127;-81
2022/09/07 04:10:24;;;;;;;12.82;8.07;;;;;;;23.03;57.41;98120.41;4432831;32;230207;-81
2022/09/07 04:12:51;;;;;;;14.23;8.48;;;;;;;22.77;57.55;98119.34;4439897;32;20094;-81
2022/09/07 04:15:31;;;;;;;16.00;9.82;;;;;;;21.43;60.98;98118.13;4439418;32;20171;-81
2022/09/07 04:17:59;;;;;;;14.27;9.68;;;;;;;22.06;58.93;98116.94;4440036;32;20088;-81
2022/09/07 04:20:27;;;;;;;16.15;8.05;;;;;;;23.15;56.05;98128.16;4439797;32;20062;-81
2022/09/07 04:22:53;;;;;;;12.20;7.00;;;;;;;23.72;51.97;98131.59;4439521;32;20080;-81
2022/09/07 04:25:20;;;;;;;16.30;6.62;;;;;;;23.11;52.31;98142.56;4439509;32;20054;-81
2022/09/07 04:27:47;;;;;;;13.70;7.78;;;;;;;22.10;54.98;98135.91;4439772;32;20061;-81
2022/09/07 04:30:14;;;;;;;14.02;7.28;;;;;;;21.50;57.05;98140.25;4439133;32;20137;-81
2022/09/07 04:32:41;;;;;;;12.73;7.60;;;;;;;21.57;57.52;98141.37;4439749;32;20155;-81
2022/09/07 04:35:16;;;;;;;14.48;7.80;;;;;;;22.21;56.01;98143.66;4439715;32;20066;-81
2022/09/07 04:37:44;;;;;;;13.40;7.90;;;;;;;22.03;57.16;98140.84;4439580;32;20089;-81
2022/09/07 04:40:11;;;;;;;13.90;8.50;;;;;;;22.86;55.29;98144.81;4439443;32;20120;-81
2022/09/07 04:42:38;;;;;;;14.27;7.22;;;;;;;23.34;54.22;98141.25;4439457;32;20073;-81
2022/09/07 04:45:07;;;;;;;16.48;8.48;;;;;;;22.91;54.73;98139.97;4439450;32;20062;-81
2022/09/07 04:47:34;;;;;;;15.70;7.85;;;;;;;23.59;53.79;98143.25;4439429;32;20109;-81
2022/09/07 04:50:01;;;;;;;13.50;8.27;;;;;;;23.26;54.83;98146.41;4439083;32;20165;-81
2022/09/07 04:52:28;;;;;;;15.50;8.93;;;;;;;22.93;56.54;98150.34;4439438;32;20066;-81
2022/09/07 04:55:09;;;;;;;18.70;9.90;;;;;;;22.89;57.42;98151.63;4439496;32;20078;-81
2022/09/07 04:57:36;;;;;;;17.52;9.93;;;;;;;23.55;56.32;98144.50;4439066;32;20057;-81
2022/09/07 05:00:10;;;;;;;15.77;9.10;;;;;;;23.46;57.42;98147.16;4439238;32;20090;-81
2022/09/07 05:02:37;;;;;;;23.60;10.30;;;;;;;23.54;57.72;98145.47;4439081;32;20070;-81
2022/09/07 05:05:09;;;;;;;19.45;10.02;;;;;;;23.72;57.61;98150.84;4439094;32;20112;-81
2022/09/07 05:07:36;;;;;;;19.45;10.32;;;;;;;23.98;57.32;98153.62;4441238;32;20101;-81
2022/09/07 05:10:03;;;;;;;16.52;9.40;;;;;;;24.35;56.11;98153.59;4441026;32;20077;-81
2022/09/07 05:12:30;;;;;;;14.05;8.77;;;;;;;24.69;54.87;98159.00;4441042;32;20069;-81
2022/09/07 05:15:04;;;;;;;16.75;8.30;;;;;;;24.74;53.03;98159.38;4441018;32;20134;-82
2022/09/07 05:17:31;;;;;;;13.82;8.80;;;;;;;24.39;53.39;98162.84;4441053;32;20141;-82
2022/09/07 05:19:58;;;;;;;15.50;8.57;;;;;;;24.69;52.83;98163.44;4440962;32;20122;-82
2022/09/07 05:22:25;;;;;;;12.37;8.23;;;;;;;25.46;51.28;98175.94;4441259;32;20080;-82
2022/09/07 05:24:52;;;;;;;12.93;7.45;;;;;;;26.05;48.94;98173.41;4440134;32;20106;-82
2022/09/07 05:27:19;;;;;;;14.20;7.97;;;;;;;27.07;45.82;98175.78;4441014;32;20115;-82
2022/09/07 05:29:46;;;;;;;12.00;7.05;;;;;;;26.99;45.96;98175.75;4440833;32;20057;-82
2022/09/07 05:32:31;;;;;;;14.77;7.55;;;;;;;28.01;42.77;98174.25;4440971;32;20104;-82
2022/09/07 05:34:59;;;;;;;15.32;8.68;;;;;;;26.80;46.54;98174.28;4440905;32;20081;-82
2022/09/07 05:37:26;;;;;;;15.10;7.87;;;;;;;27.55;46.43;98176.69;4440947;32;20085;-82
2022/09/07 05:39:55;;;;;;;13.13;6.87;;;;;;;28.58;43.93;98181.91;4440612;32;20122;-81
2022/09/07 05:42:22;;;;;;;13.18;6.68;;;;;;;29.31;40.30;98192.78;4441106;32;20129;-81
2022/09/07 05:45:05;;;;;;;13.27;6.78;;;;;;;29.31;40.61;98187.47;4440828;32;20094;-81
2022/09/07 05:47:33;;;;;;;12.23;6.93;;;;;;;30.33;39.38;98190.34;4440781;32;20098;-81
2022/09/07 05:49:59;;;;;;;12.52;7.47;;;;;;;29.89;40.11;98195.72;4440359;32;20101;-81
2022/09/07 05:52:27;;;;;;;13.07;7.35;;;;;;;30.32;39.44;98193.19;4440176;32;20106;-81
2022/09/07 05:54:56;;;;;;;14.05;7.60;;;;;;;29.79;41.73;98192.50;4439935;32;20098;-81
2022/09/07 05:57:38;;;;;;;14.07;8.30;;;;;;;31.19;39.32;98193.03;4440079;32;20058;-81
2022/09/07 06:00:06;;;;;;;14.10;8.60;;;;;;;30.47;40.83;98188.66;4439916;32;20074;-81
2022/09/07 06:02:33;;;;;;;14.90;9.05;;;;;;;30.16;42.12;98184.41;4435007;32;20070;-81
2022/09/07 06:05:06;;;;;;;14.45;8.88;;;;;;;29.57;43.17;98192.41;4427088;32;20546;-81
2022/09/07 06:07:33;;;;;;;14.98;9.00;;;;;;;29.36;44.31;98187.78;4424882;32;20196;-80
2022/09/07 06:10:00;;;;;;;14.13;8.80;;;;;;;30.37;42.31;98194.28;4429138;32;20146;-80
2022/09/07 06:12:47;;;;;;;15.77;9.07;;;;;;;29.73;43.61;98185.25;4431269;32;20058;-80
2022/09/07 06:15:20;;;;;;;14.98;9.77;;;;;;;29.93;43.80;98178.38;4433577;32;20156;-81
2022/09/07 06:17:47;;;;;;;15.20;9.20;;;;;;;28.01;48.84;98190.16;4431905;32;20162;-80
2022/09/07 06:20:14;;;;;;;15.88;10.00;;;;;;;27.72;49.46;98180.97;4432539;32;20093;-80
2022/09/07 06:22:41;;;;;;;16.90;10.55;;;;;;;27.21;52.03;98188.34;4425498;32;20161;-80
2022/09/07 06:25:08;;;;;;;15.07;10.48;;;;;;;25.95;55.81;98178.84;4425411;32;20077;-82
2022/09/07 06:27:35;;;;;;;17.20;10.75;;;;;;;25.81;55.67;98177.63;4425435;32;20113;-83
2022/09/07 06:30:03;;;;;;;16.35;10.18;;;;;;;26.58;53.64;98178.38;4425083;32;20153;-81
2022/09/07 06:32:30;;;;;;;17.37;10.32;;;;;;;26.09;55.34;98175.59;4425597;32;20112;-81
2022/09/07 06:35:13;;;;;;;18.67;10.27;;;;;;;26.08;55.59;98181.88;4424708;32;20176;-82
2022/09/07 06:37:41;;;;;;;15.10;10.07;;;;;;;25.61;56.88;98182.28;4421825;32;20114;-82
2022/09/07 06:40:09;;;;;;;18.42;11.00;;;;;;;24.25;62.37;98176.50;4419034;32;20093;-83
2022/09/07 06:42:37;;;;;;;16.23;10.60;;;;;;;25.14;59.49;98181.00;4423152;32;20086;-82
2022/09/07 06:45:05;;;;;;;19.35;10.48;;;;;;;25.28;59.26;98181.25;4423649;32;20173;-82
2022/09/07 06:47:31;;;;;;;20.92;11.32;;;;;;;25.91;57.39;98182.78;4424277;32;20107;-82
2022/09/07 06:49:59;;;;;;;19.60;11.50;;;;;;;24.86;61.96;98180.22;4425178;32;20448;-81
2022/09/07 06:52:26;;;;;;;18.73;11.12;;;;;;;24.98;61.07;98185.13;4425578;32;20148;-81
2022/09/07 06:54:53;;;;;;;20.08;9.93;;;;;;;24.72;63.49;98189.53;4425421;32;20361;-81
2022/09/07 06:57:23;;;;;;;19.20;11.15;;;;;;;26.49;55.89;98190.78;4425117;32;20100;-82
2022/09/07 06:59:50;;;;;;;18.17;9.73;;;;;;;26.45;56.55;98193.88;4425409;32;20137;-81
2022/09/07 07:02:17;;;;;;;18.52;10.55;;;;;;;27.06;53.60;98184.72;4425473;32;20149;-81
2022/09/07 07:04:45;;;;;;;17.87;10.90;;;;;;;27.16;54.20;98187.19;4424372;32;20165;-82
2022/09/07 07:07:13;;;;;;;17.23;10.38;;;;;;;25.96;57.25;98180.50;4424436;32;20117;-82
2022/09/07 07:09:40;;;;;;;22.98;10.55;;;;;;;26.88;55.35;98181.38;4423715;32;20105;-82
2022/09/07 07:12:08;;;;;;;18.35;10.15;;;;;;;26.44;55.83;98184.31;4425543;32;20094;-81
2022/09/07 07:14:35;;;;;;;17.35;10.35;;;;;;;27.19;53.29;98179.72;4425428;32;20621;-81
2022/09/07 07:17:07;;;;;;;16.50;9.82;;;;;;;26.94;53.33;98181.53;4425021;32;20124;-80
2022/09/07 07:19:34;;;;;;;16.02;9.25;;;;;;;27.13;53.27;98182.25;4425148;32;20154;-80
2022/09/07 07:22:01;;;;;;;16.95;9.20;;;;;;;26.70;54.97;98174.44;4425527;32;20097;-81
2022/09/07 07:24:48;;;;;;;16.65;9.45;;;;;;;27.31;53.43;98174.91;4424407;32;20077;-82
2022/09/07 07:27:15;;;;;;;19.20;9.98;;;;;;;28.08;50.79;98181.34;4425385;32;20157;-82
2022/09/07 07:29:42;;;;;;;13.77;8.95;;;;;;;27.21;52.90;98177.75;4424600;32;20111;-82
2022/09/07 07:32:09;;;;;;;14.52;9.45;;;;;;;26.45;55.42;98175.38;4425075;32;20132;-82
2022/09/07 07:34:36;;;;;;;12.85;8.88;;;;;;;26.62;55.50;98177.06;4425216;32;20103;-81
2022/09/07 07:37:03;;;;;;;13.93;8.63;;;;;;;27.12;53.30;98183.25;4425343;32;20150;-81
2022/09/07 07:39:30;;;;;;;15.15;9.05;;;;;;;28.42;50.19;98180.19;4424932;32;20094;-81
2022/09/07 07:42:17;;;;;;;15.38;8.77;;;;;;;27.83;50.74;98183.25;4425139;32;20093;-81
2022/09/07 07:44:44;;;;;;;14.95;8.52;;;;;;;28.65;48.53;98186.34;4424723;32;20162;-81
2022/09/07 07:47:11;;;;;;;12.88;8.20;;;;;;;29.70;45.65;98188.28;4425270;32;20104;-81
2022/09/07 07:49:38;;;;;;;13.75;8.90;;;;;;;28.49;48.81;98189.91;4425180;32;20094;-81
2022/09/07 07:52:07;;;;;;;15.60;9.02;;;;;;;27.32;51.02;98197.75;4424809;32;20578;-81
2022/09/07 07:54:54;;;;;;;12.88;7.62;;;;;;;28.71;47.57;98193.63;4424619;32;20104;-81
2022/09/07 07:57:21;;;;;;;13.20;8.13;;;;;;;29.36;46.24;98198.41;4425236;32;20073;-81
2022/09/07 07:59:48;;;;;;;13.90;8.68;;;;;;;28.89;46.61;98200.47;4423313;32;20098;-81
2022/09/07 08:02:16;;;;;;;13.95;8.63;;;;;;;27.91;49.18;98193.84;4425233;32;20089;-81
2022/09/07 08:04:43;;;;;;;15.23;7.68;;;;;;;28.32;48.48;98198.16;4425026;32;20104;-80
2022/09/07 08:07:10;;;;;;;12.88;8.32;;;;;;;29.74;44.64;98200.19;4424758;32;20104;-80
2022/09/07 08:09:43;;;;;;;14.55;7.90;;;;;;;28.81;46.07;98201.31;4418142;32;20158;-80
2022/09/07 08:12:13;;;;;;;16.10;8.57;;;;;;;28.92;46.20;98195.63;4416190;32;20106;-80
2022/09/07 08:14:40;;;;;;;13.50;7.82;;;;;;;29.69;44.90;98198.09;4409421;32;20093;-81
2022/09/07 08:17:12;;;;;;;12.93;8.70;;;;;;;28.33;47.92;98202.47;4424494;32;20112;-80
2022/09/07 08:19:39;;;;;;;13.18;8.52;;;;;;;30.01;44.07;98201.38;4425024;32;20167;-82
2022/09/07 08:22:07;;;;;;;12.55;8.38;;;;;;;30.20;43.83;98204.31;4424931;32;20108;-81
2022/09/07 08:24:34;;;;;;;15.18;8.70;;;;;;;29.41;45.03;98200.50;4424529;32;20108;-80
2022/09/07 08:27:01;;;;;;;16.80;8.13;;;;;;;28.71;46.28;98193.63;4409450;32;20098;-81
2022/09/07 08:29:28;;;;;;;15.80;8.27;;;;;;;29.50;46.20;98199.44;4407348;32;20106;-81
2022/09/07 08:32:00;;;;;;;13.65;8.88;;;;;;;29.81;45.40;98201.13;4407706;32;20112;-81
2022/09/07 08:34:27;;;;;;;15.70;8.63;;;;;;;28.66;47.48;98192.47;4408375;32;20102;-81
2022/09/07 08:36:54;;;;;;;14.85;9.82;;;;;;;29.62;44.53;98197.16;4408136;32;20535;-81
2022/09/07 08:39:21;;;;;;;15.00;9.48;;;;;;;29.65;43.49;98191.47;4408686;32;20165;-81
2022/09/07 08:42:09;;;;;;;14.95;9.50;;;;;;;30.74;41.91;98187.94;4408637;32;20090;-81
2022/09/07 08:44:59;;;;;;;17.62;10.25;;;;;;;31.22;40.07;98196.16;4414140;32;20102;-81
2022/09/07 08:47:50;;;;;;;15.70;9.93;;;;;;;31.68;39.48;98192.97;4423481;32;20081;-80
2022/09/07 08:50:36;;;;;;;17.50;9.27;;;;;;;31.86;38.50;98187.16;4419383;32;20102;-79
2022/09/07 08:53:13;;;;;;;14.20;9.13;;;;;;;32.07;38.33;98194.25;4423506;32;20168;-82
2022/09/07 08:55:48;;;;;;;14.63;9.93;;;;;;;32.97;36.67;98193.94;4422855;32;20097;-81
2022/09/07 08:58:27;;;;;;;20.37;10.80;;;;;;;33.37;36.08;98199.28;4423107;32;20125;-81
2022/09/07 09:01:27;;;;;;;15.35;10.13;;;;;;;32.86;37.32;98193.69;4423883;32;20098;-81
2022/09/07 09:03:59;;;;;;;22.35;10.88;;;;;;;33.84;34.08;98190.16;4424066;32;20128;-79
2022/09/07 09:07:07;;;;;;;14.40;9.57;;;;;;;34.92;32.15;98194.81;4421366;32;20093;-80
2022/09/07 09:10:02;;;;;;;15.43;10.95;;;;;;;34.93;32.64;98199.16;4421106;32;20111;-80
2022/09/07 09:12:55;;;;;;;14.80;10.40;;;;;;;34.29;33.69;98194.72;4422439;32;20151;-80
2022/09/07 09:15:22;;;;;;;19.05;11.30;;;;;;;33.16;34.56;98196.78;4395439;32;20098;-80
2022/09/07 09:18:04;;;;;;;17.08;12.20;;;;;;;33.63;33.72;98190.41;4423598;32;20455;-80
2022/09/07 09:20:39;;;;;;;20.50;12.02;;;;;;;34.12;33.34;98189.84;4422884;32;20093;-80
2022/09/07 09:23:11;;;;;;;17.25;10.25;;;;;;;34.41;33.24;98188.50;4423961;32;20426;-80
2022/09/07 09:25:56;;;;;;;15.48;10.13;;;;;;;35.10;32.21;98192.22;4422738;32;20105;-79
2022/09/07 09:28:23;;;;;;;15.57;9.48;;;;;;;33.76;34.17;98195.72;4423072;32;20125;-80
2022/09/07 09:30:54;;;;;;;13.80;10.45;;;;;;;34.55;33.03;98191.09;4423904;32;20189;-79
2022/09/07 09:33:26;;;;;;;18.77;10.40;;;;;;;33.71;34.44;98189.34;4424072;32;20090;-80
2022/09/07 09:35:59;;;;;;;16.37;9.35;;;;;;;35.29;31.73;98182.34;4422787;32;20124;-80
2022/09/07 09:38:42;;;;;;;14.77;9.95;;;;;;;35.40;31.48;98180.81;4423665;32;20104;-81
2022/09/07 09:41:11;;;;;;;13.52;9.10;;;;;;;34.53;32.92;98174.44;4423959;32;20157;-80
2022/09/07 09:43:51;;;;;;;16.02;10.38;;;;;;;35.40;31.46;98183.50;4422795;32;20117;-80
2022/09/07 09:46:31;;;;;;;15.88;9.98;;;;;;;34.59;31.70;98168.22;4423624;32;20723;-80
2022/09/07 09:49:05;;;;;;;19.77;9.73;;;;;;;33.95;33.69;98161.94;4422735;32;20223;-81
2022/09/07 09:51:33;;;;;;;14.32;8.77;;;;;;;35.93;30.13;98168.50;4423175;32;20077;-81
2022/09/07 09:54:24;;;;;;;13.32;9.07;;;;;;;35.49;30.46;98166.91;4414308;32;20385;-80
2022/09/07 09:56:51;;;;;;;14.73;10.05;;;;;;;35.06;31.54;98164.19;4424913;32;20114;-81
2022/09/07 09:59:22;;;;;;;15.77;10.07;;;;;;;36.04;30.12;98166.91;4425580;32;20097;-80
2022/09/07 10:02:23;;;;;;;14.25;9.98;;;;;;;35.17;31.12;98168.00;4425814;32;20073;-81
2022/09/07 10:05:29;;;;;;;14.73;9.98;;;;;;;34.86;31.27;98158.94;4424092;32;20458;-81
2022/09/07 10:07:56;;;;;;;11.57;8.20;;;;;;;35.06;31.64;98154.28;4425995;32;20098;-81
2022/09/07 10:10:26;;;;;;;14.02;9.18;;;;;;;35.05;29.55;98149.94;4425816;32;20259;-81
2022/09/07 10:12:54;;;;;;;14.52;10.70;;;;;;;34.56;31.24;98142.69;4424414;32;20073;-80
2022/09/07 10:15:34;;;;;;;12.52;9.70;;;;;;;34.11;32.25;98145.38;4424660;32;20175;-80
2022/09/07 10:18:17;;;;;;;17.55;10.25;;;;;;;34.47;31.55;98139.44;4425901;32;20106;-80
2022/09/07 10:20:44;;;;;;;13.25;9.00;;;;;;;35.23;31.14;98143.00;4424519;32;20146;-80
2022/09/07 10:23:29;;;;;;;12.85;10.02;;;;;;;34.41;32.17;98137.62;4425927;32;20098;-80
2022/09/07 10:25:56;;;;;;;13.70;8.07;;;;;;;34.03;33.50;98134.09;4425527;32;20117;-80
2022/09/07 10:28:23;;;;;;;12.25;9.70;;;;;;;34.20;31.13;98136.06;4425659;32;20112;-80
2022/09/07 10:31:11;;;;;;;13.15;9.48;;;;;;;34.41;31.50;98139.47;4425755;32;20094;-80
2022/09/07 10:34:09;;;;;;;12.82;9.57;;;;;;;35.25;30.25;98146.28;4425627;32;20120;-79
2022/09/07 10:37:12;;;;;;;12.13;9.30;;;;;;;34.62;30.25;98139.13;4425958;32;20102;-80
2022/09/07 10:39:42;;;;;;;13.10;9.23;;;;;;;34.84;30.27;98144.94;4412005;32;20109;-80
2022/09/07 10:42:08;;;;;;;12.45;9.43;;;;;;;35.03;29.27;98143.19;4425598;32;20100;-79
2022/09/07 10:45:11;;;;;;;14.73;9.30;;;;;;;35.43;29.31;98142.84;4425452;32;20086;-80
2022/09/07 10:47:49;;;;;;;11.95;9.35;;;;;;;34.39;31.59;98131.66;4425543;32;20097;-80
2022/09/07 10:50:24;;;;;;;14.50;8.95;;;;;;;34.58;31.04;98134.44;4425692;32;20105;-80
2022/09/07 10:53:31;;;;;;;11.75;8.80;;;;;;;35.55;28.35;98131.13;4424648;32;20093;-81
2022/09/07 10:56:25;;;;;;;11.25;7.30;;;;;;;35.70;28.51;98133.44;4395206;32;20086;-80
2022/09/07 10:59:21;;;;;;;12.25;7.95;;;;;;;35.88;28.00;98124.59;4424407;32;20171;-80
2022/09/07 11:01:58;;;;;;;10.63;6.95;;;;;;;36.70;26.54;98128.41;4415461;32;20116;-80
2022/09/07 11:05:22;;;;;;;10.60;6.62;;;;;;;36.91;25.66;98126.25;4424513;32;20093;-80
2022/09/07 11:08:17;;;;;;;8.30;4.40;;;;;;;36.33;26.12;98129.56;4377705;32;20169;-81
2022/09/07 11:11:04;;;;;;;9.65;4.80;;;;;;;36.44;24.89;98121.56;4353202;32;20119;-81
2022/09/07 11:13:35;;;;;;;8.73;5.22;;;;;;;35.67;26.42;98128.53;4416218;32;20097;-81
2022/09/07 11:16:25;;;;;;;9.50;4.87;;;;;;;35.87;26.13;98112.22;4425154;32;20108;-81
2022/09/07 11:19:16;;;;;;;10.70;5.43;;;;;;;35.50;26.07;98116.75;4425248;32;20090;-81
2022/09/07 11:22:15;;;;;;;9.45;5.60;;;;;;;35.33;26.63;98121.84;4424255;32;20141;-80
2022/09/07 11:24:50;;;;;;;10.55;6.00;;;;;;;36.32;25.30;98114.50;4424114;32;21367;-80
2022/09/07 11:27:42;;;;;;;10.25;5.62;;;;;;;36.32;25.82;98118.00;4424171;32;20114;-80
2022/09/07 11:30:17;;;;;;;8.82;5.53;;;;;;;36.93;25.21;98114.22;4423849;32;20498;-80
2022/09/07 11:32:57;;;;;;;9.23;6.15;;;;;;;36.62;25.37;98117.19;4425456;32;20089;-80
2022/09/07 11:35:36;;;;;;;9.20;5.80;;;;;;;36.66;25.34;98105.72;4423953;32;20113;-80
2022/09/07 11:38:19;;;;;;;10.82;6.20;;;;;;;35.79;26.87;98107.12;4424020;32;20199;-80
2022/09/07 11:40:56;;;;;;;10.85;5.70;;;;;;;35.67;27.31;98107.06;4424219;32;20159;-79
2022/09/07 11:43:31;;;;;;;15.55;6.30;;;;;;;35.89;26.81;98094.84;4425070;32;20112;-80
2022/09/07 11:46:06;;;;;;;10.03;6.07;;;;;;;36.06;25.80;98095.03;4425145;32;20108;-80
2022/09/07 11:48:55;;;;;;;12.00;6.32;;;;;;;37.21;25.24;98093.84;4424325;32;20094;-80
2022/09/07 11:51:55;;;;;;;9.73;6.07;;;;;;;35.99;26.84;98099.66;4423942;32;20112;-79
2022/09/07 11:54:37;;;;;;;10.48;6.30;;;;;;;35.14;28.21;98088.81;4424229;32;20125;-79
2022/09/07 11:57:35;;;;;;;11.90;6.50;;;;;;;35.26;28.08;98091.59;4425333;32;20105;-79
2022/09/07 12:00:13;;;;;;;11.43;6.45;;;;;;;35.19;28.73;98090.81;4425136;32;20451;-79
2022/09/07 12:03:14;;;;;;;10.40;6.18;;;;;;;35.60;27.88;98077.59;4411646;32;20523;-80